sensor_id;sensor_type;location;lat;lon;timestamp;pressure;altitude;pressure_sealevel;temperature;humidity
65190;BME280;51777;53.570;9.984;2022-08-21T00:01:54;101381.44;;;17.71;72.14
65190;BME280;51777;53.570;9.984;2022-08-21T00:04:19;101381.63;;;17.69;72.70
65190;BME280;51777;53.570;9.984;2022-08-21T00:06:45;101384.56;;;17.66;72.86
65190;BME280;51777;53.570;9.984;2022-08-21T00:09:10;101379.03;;;17.61;73.15
65190;BME280;51777;53.570;9.984;2022-08-21T00:11:37;101374.97;;;17.58;73.67
65190;BME280;51777;53.570;9.984;2022-08-21T00:14:05;101383.63;;;17.59;74.00
65190;BME280;51777;53.570;9.984;2022-08-21T00:16:31;101378.22;;;17.60;73.71
65190;BME280;51777;53.570;9.984;2022-08-21T00:18:57;101365.34;;;17.59;73.82
65190;BME280;51777;53.570;9.984;2022-08-21T00:21:23;101368.75;;;17.59;74.06
65190;BME280;51777;53.570;9.984;2022-08-21T00:23:48;101374.97;;;17.58;74.01
65190;BME280;51777;53.570;9.984;2022-08-21T00:26:14;101367.78;;;17.60;73.66
65190;BME280;51777;53.570;9.984;2022-08-21T00:28:39;101364.34;;;17.60;74.13
65190;BME280;51777;53.570;9.984;2022-08-21T00:31:05;101362.91;;;17.57;74.05
65190;BME280;51777;53.570;9.984;2022-08-21T00:33:31;101367.22;;;17.50;74.58
65190;BME280;51777;53.570;9.984;2022-08-21T00:35:57;101354.31;;;17.49;74.29
65190;BME280;51777;53.570;9.984;2022-08-21T00:38:22;101351.72;;;17.49;74.03
65190;BME280;51777;53.570;9.984;2022-08-21T00:40:50;101355.94;;;17.50;73.96
65190;BME280;51777;53.570;9.984;2022-08-21T00:43:19;101360.00;;;17.52;74.22
65190;BME280;51777;53.570;9.984;2022-08-21T00:45:45;101354.78;;;17.52;74.46
65190;BME280;51777;53.570;9.984;2022-08-21T00:48:10;101354.84;;;17.44;74.05
65190;BME280;51777;53.570;9.984;2022-08-21T00:50:40;101355.81;;;17.43;74.17
65190;BME280;51777;53.570;9.984;2022-08-21T00:53:07;101354.19;;;17.42;74.45
65190;BME280;51777;53.570;9.984;2022-08-21T00:55:34;101349.84;;;17.35;74.08
65190;BME280;51777;53.570;9.984;2022-08-21T00:58:03;101352.63;;;17.33;74.63
65190;BME280;51777;53.570;9.984;2022-08-21T01:00:32;101351.63;;;17.34;74.52
65190;BME280;51777;53.570;9.984;2022-08-21T01:02:59;101353.44;;;17.33;75.08
65190;BME280;51777;53.570;9.984;2022-08-21T01:05:26;101352.63;;;17.33;74.30
65190;BME280;51777;53.570;9.984;2022-08-21T01:07:52;101350.81;;;17.33;74.62
65190;BME280;51777;53.570;9.984;2022-08-21T01:10:19;101351.00;;;17.32;74.40
65190;BME280;51777;53.570;9.984;2022-08-21T01:12:45;101351.81;;;17.32;74.60
65190;BME280;51777;53.570;9.984;2022-08-21T01:15:12;101352.81;;;17.31;74.51
65190;BME280;51777;53.570;9.984;2022-08-21T01:17:40;101355.25;;;17.33;74.66
65190;BME280;51777;53.570;9.984;2022-08-21T01:20:08;101353.78;;;17.30;75.66
65190;BME280;51777;53.570;9.984;2022-08-21T01:22:34;101360.81;;;17.30;75.60
65190;BME280;51777;53.570;9.984;2022-08-21T01:25:00;101360.81;;;17.30;76.22
65190;BME280;51777;53.570;9.984;2022-08-21T01:27:26;101355.78;;;17.28;76.04
65190;BME280;51777;53.570;9.984;2022-08-21T01:29:58;101356.75;;;17.27;75.99
65190;BME280;51777;53.570;9.984;2022-08-21T01:32:26;101364.59;;;17.27;76.33
65190;BME280;51777;53.570;9.984;2022-08-21T01:34:52;101358.56;;;17.27;76.87
65190;BME280;51777;53.570;9.984;2022-08-21T01:37:19;101365.41;;;17.28;77.54
65190;BME280;51777;53.570;9.984;2022-08-21T01:39:45;101361.19;;;17.27;77.72
65190;BME280;51777;53.570;9.984;2022-08-21T01:42:12;101361.19;;;17.27;78.33
65190;BME280;51777;53.570;9.984;2022-08-21T01:44:37;101357.75;;;17.26;78.82
65190;BME280;51777;53.570;9.984;2022-08-21T01:47:06;101355.31;;;17.25;79.91
65190;BME280;51777;53.570;9.984;2022-08-21T01:49:33;101357.25;;;17.23;79.81
65190;BME280;51777;53.570;9.984;2022-08-21T01:51:59;101353.84;;;17.22;80.73
65190;BME280;51777;53.570;9.984;2022-08-21T01:54:25;101347.16;;;17.20;81.39
65190;BME280;51777;53.570;9.984;2022-08-21T01:56:52;101348.97;;;17.19;80.78
65190;BME280;51777;53.570;9.984;2022-08-21T01:59:19;101351.41;;;17.21;81.31
65190;BME280;51777;53.570;9.984;2022-08-21T02:01:44;101349.97;;;17.18;81.74
65190;BME280;51777;53.570;9.984;2022-08-21T02:04:10;101344.44;;;17.13;81.88
65190;BME280;51777;53.570;9.984;2022-08-21T02:06:36;101358.31;;;17.14;81.65
65190;BME280;51777;53.570;9.984;2022-08-21T02:09:04;101354.72;;;17.15;82.38
65190;BME280;51777;53.570;9.984;2022-08-21T02:11:31;101340.03;;;17.14;82.58
65190;BME280;51777;53.570;9.984;2022-08-21T02:13:56;101348.88;;;17.13;82.59
65190;BME280;51777;53.570;9.984;2022-08-21T02:16:22;101349.69;;;17.13;82.24
65190;BME280;51777;53.570;9.984;2022-08-21T02:18:47;101341.16;;;17.11;82.32
65190;BME280;51777;53.570;9.984;2022-08-21T02:21:12;101345.75;;;17.09;82.54
65190;BME280;51777;53.570;9.984;2022-08-21T02:23:38;101350.81;;;17.11;82.31
65190;BME280;51777;53.570;9.984;2022-08-21T02:26:06;101345.59;;;17.11;82.90
65190;BME280;51777;53.570;9.984;2022-08-21T02:28:32;101344.13;;;17.08;82.46
65190;BME280;51777;53.570;9.984;2022-08-21T02:30:58;101344.31;;;17.07;82.62
65190;BME280;51777;53.570;9.984;2022-08-21T02:33:24;101341.53;;;17.08;82.40
65190;BME280;51777;53.570;9.984;2022-08-21T02:35:51;101344.31;;;17.07;82.37
65190;BME280;51777;53.570;9.984;2022-08-21T02:38:21;101346.75;;;17.08;82.44
65190;BME280;51777;53.570;9.984;2022-08-21T02:40:49;101336.78;;;17.12;82.53
65190;BME280;51777;53.570;9.984;2022-08-21T02:43:16;101348.38;;;17.09;82.22
65190;BME280;51777;53.570;9.984;2022-08-21T02:45:43;101353.16;;;17.06;82.24
65190;BME280;51777;53.570;9.984;2022-08-21T02:48:12;101342.69;;;17.06;82.38
65190;BME280;51777;53.570;9.984;2022-08-21T02:50:45;101339.44;;;17.03;82.82
65190;BME280;51777;53.570;9.984;2022-08-21T02:53:12;101344.03;;;17.01;82.29
65190;BME280;51777;53.570;9.984;2022-08-21T02:55:43;101332.94;;;16.99;82.48
65190;BME280;51777;53.570;9.984;2022-08-21T02:58:09;101332.81;;;16.93;82.26
65190;BME280;51777;53.570;9.984;2022-08-21T03:00:36;101334.31;;;16.87;82.65
65190;BME280;51777;53.570;9.984;2022-08-21T03:03:03;101333.66;;;16.85;83.05
65190;BME280;51777;53.570;9.984;2022-08-21T03:05:29;101327.78;;;16.83;83.04
65190;BME280;51777;53.570;9.984;2022-08-21T03:07:57;101327.78;;;16.83;82.99
65190;BME280;51777;53.570;9.984;2022-08-21T03:10:24;101332.56;;;16.80;83.45
65190;BME280;51777;53.570;9.984;2022-08-21T03:12:50;101329.31;;;16.78;83.42
65190;BME280;51777;53.570;9.984;2022-08-21T03:15:18;101327.69;;;16.77;83.67
65190;BME280;51777;53.570;9.984;2022-08-21T03:17:45;101328.50;;;16.77;83.55
65190;BME280;51777;53.570;9.984;2022-08-21T03:20:12;101324.91;;;16.78;83.44
65190;BME280;51777;53.570;9.984;2022-08-21T03:22:39;101328.50;;;16.77;83.07
65190;BME280;51777;53.570;9.984;2022-08-21T03:25:05;101326.06;;;16.76;82.66
65190;BME280;51777;53.570;9.984;2022-08-21T03:27:30;101325.25;;;16.75;82.61
65190;BME280;51777;53.570;9.984;2022-08-21T03:29:57;101323.13;;;16.70;82.84
65190;BME280;51777;53.570;9.984;2022-08-21T03:32:22;101322.31;;;16.70;82.94
65190;BME280;51777;53.570;9.984;2022-08-21T03:34:48;101322.31;;;16.70;82.86
65190;BME280;51777;53.570;9.984;2022-08-21T03:37:14;101322.31;;;16.70;83.23
65190;BME280;51777;53.570;9.984;2022-08-21T03:39:40;101326.72;;;16.69;83.16
65190;BME280;51777;53.570;9.984;2022-08-21T03:42:07;101325.09;;;16.68;83.39
65190;BME280;51777;53.570;9.984;2022-08-21T03:44:32;101321.69;;;16.68;82.86
65190;BME280;51777;53.570;9.984;2022-08-21T03:46:58;101320.38;;;16.64;82.94
65190;BME280;51777;53.570;9.984;2022-08-21T03:49:25;101321.69;;;16.60;82.85
65190;BME280;51777;53.570;9.984;2022-08-21T03:51:50;101317.78;;;16.56;83.36
65190;BME280;51777;53.570;9.984;2022-08-21T03:54:16;101325.00;;;16.54;82.95
65190;BME280;51777;53.570;9.984;2022-08-21T03:56:41;101325.16;;;16.52;82.91
65190;BME280;51777;53.570;9.984;2022-08-21T03:59:07;101321.91;;;16.50;83.01
65190;BME280;51777;53.570;9.984;2022-08-21T04:01:33;101327.44;;;16.47;82.91
65190;BME280;51777;53.570;9.984;2022-08-21T04:03:58;101323.22;;;16.46;83.18
65190;BME280;51777;53.570;9.984;2022-08-21T04:06:24;101316.53;;;16.43;83.23
65190;BME280;51777;53.570;9.984;2022-08-21T04:08:52;101330.28;;;16.37;83.81
65190;BME280;51777;53.570;9.984;2022-08-21T04:11:17;101330.78;;;16.33;84.54
65190;BME280;51777;53.570;9.984;2022-08-21T04:13:42;101333.19;;;16.34;84.61
65190;BME280;51777;53.570;9.984;2022-08-21T04:16:08;101332.88;;;16.37;84.79
65190;BME280;51777;53.570;9.984;2022-08-21T04:18:33;101332.38;;;16.42;84.85
65190;BME280;51777;53.570;9.984;2022-08-21T04:21:00;101332.84;;;16.45;84.88
65190;BME280;51777;53.570;9.984;2022-08-21T04:23:27;101333.16;;;16.51;85.44
65190;BME280;51777;53.570;9.984;2022-08-21T04:25:54;101324.63;;;16.57;85.83
65190;BME280;51777;53.570;9.984;2022-08-21T04:28:22;101331.47;;;16.66;85.65
65190;BME280;51777;53.570;9.984;2022-08-21T04:30:47;101328.81;;;16.74;85.74
65190;BME280;51777;53.570;9.984;2022-08-21T04:33:13;101335.81;;;16.82;85.71
65190;BME280;51777;53.570;9.984;2022-08-21T04:35:38;101338.72;;;16.87;86.71
65190;BME280;51777;53.570;9.984;2022-08-21T04:38:04;101339.66;;;16.94;86.26
65190;BME280;51777;53.570;9.984;2022-08-21T04:40:29;101337.31;;;16.99;85.54
65190;BME280;51777;53.570;9.984;2022-08-21T04:43:00;101339.44;;;17.03;85.96
65190;BME280;51777;53.570;9.984;2022-08-21T04:45:37;101339.53;;;17.10;85.72
65190;BME280;51777;53.570;9.984;2022-08-21T04:48:05;101349.50;;;17.15;85.96
65190;BME280;51777;53.570;9.984;2022-08-21T04:50:42;101340.31;;;17.19;85.62
65190;BME280;51777;53.570;9.984;2022-08-21T04:56:06;101353.03;;;17.22;85.88
65190;BME280;51777;53.570;9.984;2022-08-21T04:58:35;101355.81;;;17.20;86.08
65190;BME280;51777;53.570;9.984;2022-08-21T05:01:02;101356.63;;;17.21;86.06
65190;BME280;51777;53.570;9.984;2022-08-21T05:03:28;101360.22;;;17.20;85.96
65190;BME280;51777;53.570;9.984;2022-08-21T05:05:56;101357.44;;;17.21;85.70
65190;BME280;51777;53.570;9.984;2022-08-21T05:08:24;101358.44;;;17.20;86.09
65190;BME280;51777;53.570;9.984;2022-08-21T05:10:50;101360.22;;;17.20;86.06
65190;BME280;51777;53.570;9.984;2022-08-21T05:13:16;101360.53;;;17.25;86.01
65190;BME280;51777;53.570;9.984;2022-08-21T05:15:42;101363.16;;;17.25;85.82
65190;BME280;51777;53.570;9.984;2022-08-21T05:18:08;101359.06;;;17.22;85.66
65190;BME280;51777;53.570;9.984;2022-08-21T05:20:34;101364.16;;;17.24;85.99
65190;BME280;51777;53.570;9.984;2022-08-21T05:23:00;101360.81;;;17.30;85.75
65190;BME280;51777;53.570;9.984;2022-08-21T05:25:26;101360.41;;;17.41;85.29
65190;BME280;51777;53.570;9.984;2022-08-21T05:27:52;101361.28;;;17.56;85.25
65190;BME280;51777;53.570;9.984;2022-08-21T05:30:19;101366.09;;;17.68;82.95
65190;BME280;51777;53.570;9.984;2022-08-21T05:32:44;101361.97;;;17.73;82.74
65190;BME280;51777;53.570;9.984;2022-08-21T05:35:09;101368.41;;;17.85;81.33
65190;BME280;51777;53.570;9.984;2022-08-21T05:37:36;101361.41;;;17.86;78.08
65190;BME280;51777;53.570;9.984;2022-08-21T05:40:03;101367.59;;;17.85;76.60
65190;BME280;51777;53.570;9.984;2022-08-21T05:42:30;101365.91;;;17.92;75.18
65190;BME280;51777;53.570;9.984;2022-08-21T05:44:56;101370.13;;;17.93;72.81
65190;BME280;51777;53.570;9.984;2022-08-21T05:47:21;101369.25;;;18.01;74.72
65190;BME280;51777;53.570;9.984;2022-08-21T05:49:46;101365.91;;;18.07;75.64
65190;BME280;51777;53.570;9.984;2022-08-21T05:52:12;101364.09;;;18.07;74.44
65190;BME280;51777;53.570;9.984;2022-08-21T05:54:37;101365.47;;;18.03;74.21
65190;BME280;51777;53.570;9.984;2022-08-21T05:57:03;101366.09;;;18.05;74.77
65190;BME280;51777;53.570;9.984;2022-08-21T05:59:29;101364.66;;;18.17;73.83
65190;BME280;51777;53.570;9.984;2022-08-21T06:01:54;101366.22;;;18.27;73.46
65190;BME280;51777;53.570;9.984;2022-08-21T06:04:19;101368.72;;;18.35;73.46
65190;BME280;51777;53.570;9.984;2022-08-21T06:06:45;101372.06;;;18.43;69.63
65190;BME280;51777;53.570;9.984;2022-08-21T06:09:11;101379.28;;;18.56;70.53
65190;BME280;51777;53.570;9.984;2022-08-21T06:11:36;101378.75;;;18.61;69.38
65190;BME280;51777;53.570;9.984;2022-08-21T06:14:02;101378.22;;;18.65;68.33
65190;BME280;51777;53.570;9.984;2022-08-21T06:16:27;101374.84;;;18.71;67.18
65190;BME280;51777;53.570;9.984;2022-08-21T06:18:53;101371.44;;;18.71;67.26
65190;BME280;51777;53.570;9.984;2022-08-21T06:21:18;101373.53;;;18.75;67.46
65190;BME280;51777;53.570;9.984;2022-08-21T06:23:44;101367.88;;;18.93;67.74
65190;BME280;51777;53.570;9.984;2022-08-21T06:26:12;101375.72;;;18.93;65.66
65190;BME280;51777;53.570;9.984;2022-08-21T06:28:38;101375.28;;;18.90;65.24
65190;BME280;51777;53.570;9.984;2022-08-21T06:31:20;101369.16;;;18.83;64.51
65190;BME280;51777;53.570;9.984;2022-08-21T06:33:46;101375.50;;;18.73;63.53
65190;BME280;51777;53.570;9.984;2022-08-21T06:36:12;101375.50;;;18.73;64.77
65190;BME280;51777;53.570;9.984;2022-08-21T06:38:38;101375.66;;;18.72;64.77
65190;BME280;51777;53.570;9.984;2022-08-21T06:41:05;101370.38;;;18.65;64.11
65190;BME280;51777;53.570;9.984;2022-08-21T06:43:30;101379.66;;;18.68;64.68
65190;BME280;51777;53.570;9.984;2022-08-21T06:45:56;101376.75;;;18.77;63.83
65190;BME280;51777;53.570;9.984;2022-08-21T06:48:22;101373.84;;;18.87;63.06
65190;BME280;51777;53.570;9.984;2022-08-21T06:50:48;101375.53;;;18.95;63.43
65190;BME280;51777;53.570;9.984;2022-08-21T06:53:17;101377.69;;;19.06;63.72
65190;BME280;51777;53.570;9.984;2022-08-21T06:55:43;101371.53;;;19.14;62.26
65190;BME280;51777;53.570;9.984;2022-08-21T06:58:09;101371.94;;;19.17;62.54
65190;BME280;51777;53.570;9.984;2022-08-21T07:00:38;101364.97;;;19.24;61.75
65190;BME280;51777;53.570;9.984;2022-08-21T07:03:04;101368.03;;;19.28;61.33
65190;BME280;51777;53.570;9.984;2022-08-21T07:05:31;101356.34;;;19.30;61.49
65190;BME280;51777;53.570;9.984;2022-08-21T07:07:57;101361.59;;;19.30;61.26
65190;BME280;51777;53.570;9.984;2022-08-21T07:10:23;101360.03;;;19.36;61.39
65190;BME280;51777;53.570;9.984;2022-08-21T07:12:50;101356.66;;;19.42;60.78
65190;BME280;51777;53.570;9.984;2022-08-21T07:15:17;101348.56;;;19.37;59.57
65190;BME280;51777;53.570;9.984;2022-08-21T07:17:42;101347.16;;;19.41;59.42
65190;BME280;51777;53.570;9.984;2022-08-21T07:20:08;101356.34;;;19.52;59.16
65190;BME280;51777;53.570;9.984;2022-08-21T07:22:35;101353.84;;;19.65;58.45
65190;BME280;51777;53.570;9.984;2022-08-21T07:25:03;101352.66;;;19.68;56.36
65190;BME280;51777;53.570;9.984;2022-08-21T07:27:29;101347.41;;;19.68;57.06
65190;BME280;51777;53.570;9.984;2022-08-21T07:29:55;101347.69;;;19.79;56.63
65190;BME280;51777;53.570;9.984;2022-08-21T07:32:21;101347.38;;;19.89;56.89
65190;BME280;51777;53.570;9.984;2022-08-21T07:34:46;101335.88;;;19.97;56.50
65190;BME280;51777;53.570;9.984;2022-08-21T07:37:12;101339.19;;;20.05;55.77
65190;BME280;51777;53.570;9.984;2022-08-21T07:39:37;101333.59;;;20.15;56.18
65190;BME280;51777;53.570;9.984;2022-08-21T07:42:03;101335.28;;;20.29;55.82
65190;BME280;51777;53.570;9.984;2022-08-21T07:44:28;101331.72;;;20.43;56.10
65190;BME280;51777;53.570;9.984;2022-08-21T07:46:54;101322.47;;;20.47;55.48
65190;BME280;51777;53.570;9.984;2022-08-21T07:49:19;101332.78;;;20.56;54.64
65190;BME280;51777;53.570;9.984;2022-08-21T07:51:44;101327.97;;;20.66;54.63
65190;BME280;51777;53.570;9.984;2022-08-21T07:54:10;101334.50;;;20.83;54.42
65190;BME280;51777;53.570;9.984;2022-08-21T07:56:36;101338.59;;;20.99;53.79
65190;BME280;51777;53.570;9.984;2022-08-21T07:59:01;101342.47;;;21.09;53.85
65190;BME280;51777;53.570;9.984;2022-08-21T08:01:28;101340.44;;;21.25;53.71
65190;BME280;51777;53.570;9.984;2022-08-21T08:03:53;101335.84;;;21.40;54.31
65190;BME280;51777;53.570;9.984;2022-08-21T08:06:18;101332.78;;;21.63;54.07
65190;BME280;51777;53.570;9.984;2022-08-21T08:08:45;101336.63;;;21.80;53.12
65190;BME280;51777;53.570;9.984;2022-08-21T08:11:11;101335.00;;;21.79;52.91
65190;BME280;51777;53.570;9.984;2022-08-21T08:13:46;101331.53;;;21.92;53.16
65190;BME280;51777;53.570;9.984;2022-08-21T08:16:13;101325.25;;;21.93;53.15
65190;BME280;51777;53.570;9.984;2022-08-21T08:18:39;101324.84;;;22.09;52.99
65190;BME280;51777;53.570;9.984;2022-08-21T08:21:05;101336.75;;;22.25;53.17
65190;BME280;51777;53.570;9.984;2022-08-21T08:23:31;101332.22;;;22.45;52.82
65190;BME280;51777;53.570;9.984;2022-08-21T08:25:57;101331.91;;;22.67;52.08
65190;BME280;51777;53.570;9.984;2022-08-21T08:28:23;101334.22;;;22.95;51.26
65190;BME280;51777;53.570;9.984;2022-08-21T08:30:49;101340.06;;;23.60;49.25
65190;BME280;51777;53.570;9.984;2022-08-21T08:33:15;101337.31;;;24.28;48.18
65190;BME280;51777;53.570;9.984;2022-08-21T08:35:45;101339.16;;;24.76;46.35
65190;BME280;51777;53.570;9.984;2022-08-21T08:38:11;101339.09;;;25.12;45.87
65190;BME280;51777;53.570;9.984;2022-08-21T08:40:41;101340.69;;;25.13;44.88
65190;BME280;51777;53.570;9.984;2022-08-21T08:43:09;101341.69;;;25.89;44.58
65190;BME280;51777;53.570;9.984;2022-08-21T08:45:37;101347.81;;;26.99;41.28
65190;BME280;51777;53.570;9.984;2022-08-21T08:48:06;101348.25;;;27.07;40.85
65190;BME280;51777;53.570;9.984;2022-08-21T08:50:53;101343.97;;;27.40;40.05
65190;BME280;51777;53.570;9.984;2022-08-21T08:53:32;101343.03;;;27.29;39.79
65190;BME280;51777;53.570;9.984;2022-08-21T08:56:00;101340.25;;;27.74;40.04
65190;BME280;51777;53.570;9.984;2022-08-21T08:58:30;101344.63;;;28.02;40.12
65190;BME280;51777;53.570;9.984;2022-08-21T09:00:56;101348.84;;;28.91;37.75
65190;BME280;51777;53.570;9.984;2022-08-21T09:03:23;101344.72;;;29.79;36.26
65190;BME280;51777;53.570;9.984;2022-08-21T09:05:57;101350.06;;;30.57;34.53
65190;BME280;51777;53.570;9.984;2022-08-21T09:08:50;101350.41;;;30.66;33.58
65190;BME280;51777;53.570;9.984;2022-08-21T09:16:56;101341.09;;;31.30;32.14
65190;BME280;51777;53.570;9.984;2022-08-21T09:25:20;101341.78;;;31.71;31.75
65190;BME280;51777;53.570;9.984;2022-08-21T09:27:47;101350.34;;;31.83;30.94
65190;BME280;51777;53.570;9.984;2022-08-21T09:30:14;101339.41;;;31.59;31.65
65190;BME280;51777;53.570;9.984;2022-08-21T09:32:40;101332.66;;;31.87;30.62
65190;BME280;51777;53.570;9.984;2022-08-21T09:35:13;101330.44;;;32.14;30.23
65190;BME280;51777;53.570;9.984;2022-08-21T09:38:06;101333.56;;;32.71;29.56
65190;BME280;51777;53.570;9.984;2022-08-21T09:45:33;101335.09;;;33.16;28.75
65190;BME280;51777;53.570;9.984;2022-08-21T09:48:28;101335.59;;;33.52;28.60
65190;BME280;51777;53.570;9.984;2022-08-21T09:51:06;101337.41;;;34.05;27.49
65190;BME280;51777;53.570;9.984;2022-08-21T09:53:32;101337.34;;;33.33;29.13
65190;BME280;51777;53.570;9.984;2022-08-21T09:56:14;101326.91;;;33.32;29.14
65190;BME280;51777;53.570;9.984;2022-08-21T09:58:59;101328.84;;;33.79;28.78
65190;BME280;51777;53.570;9.984;2022-08-21T10:01:25;101331.03;;;34.20;27.92
65190;BME280;51777;53.570;9.984;2022-08-21T10:04:10;101336.34;;;34.43;26.78
65190;BME280;51777;53.570;9.984;2022-08-21T10:06:36;101340.25;;;34.32;27.09
65190;BME280;51777;53.570;9.984;2022-08-21T10:09:16;101330.38;;;34.47;26.97
65190;BME280;51777;53.570;9.984;2022-08-21T10:11:53;101336.25;;;34.30;27.65
65190;BME280;51777;53.570;9.984;2022-08-21T10:20:00;101328.66;;;34.56;27.39
65190;BME280;51777;53.570;9.984;2022-08-21T10:22:35;101328.19;;;33.10;29.13
65190;BME280;51777;53.570;9.984;2022-08-21T10:28:05;101327.97;;;32.67;29.39
65190;BME280;51777;53.570;9.984;2022-08-21T10:30:56;101317.59;;;33.00;28.84
65190;BME280;51777;53.570;9.984;2022-08-21T10:36:18;101325.00;;;33.61;28.54
65190;BME280;51777;53.570;9.984;2022-08-21T10:38:55;101319.69;;;33.03;29.24
65190;BME280;51777;53.570;9.984;2022-08-21T10:41:32;101318.81;;;33.66;28.00
65190;BME280;51777;53.570;9.984;2022-08-21T10:44:25;101316.75;;;33.28;28.65
65190;BME280;51777;53.570;9.984;2022-08-21T10:54:55;101318.22;;;32.87;28.20
65190;BME280;51777;53.570;9.984;2022-08-21T10:57:38;101324.19;;;33.90;26.96
65190;BME280;51777;53.570;9.984;2022-08-21T11:00:10;101316.38;;;35.01;26.00
65190;BME280;51777;53.570;9.984;2022-08-21T11:02:42;101331.41;;;34.88;25.64
65190;BME280;51777;53.570;9.984;2022-08-21T11:05:14;101322.06;;;33.86;26.29
65190;BME280;51777;53.570;9.984;2022-08-21T11:07:48;101323.41;;;32.24;28.19
65190;BME280;51777;53.570;9.984;2022-08-21T11:12:49;101325.56;;;33.87;25.65
65190;BME280;51777;53.570;9.984;2022-08-21T11:15:33;101323.31;;;34.32;24.76
65190;BME280;51777;53.570;9.984;2022-08-21T11:18:16;101331.31;;;35.40;23.86
65190;BME280;51777;53.570;9.984;2022-08-21T11:20:49;101335.88;;;36.44;21.43
65190;BME280;51777;53.570;9.984;2022-08-21T11:23:18;101330.97;;;35.82;21.13
65190;BME280;51777;53.570;9.984;2022-08-21T11:25:54;101346.31;;;37.04;20.33
65190;BME280;51777;53.570;9.984;2022-08-21T11:28:34;101335.81;;;37.73;20.12
65190;BME280;51777;53.570;9.984;2022-08-21T11:34:08;101333.31;;;35.01;22.32
65190;BME280;51777;53.570;9.984;2022-08-21T11:39:36;101335.16;;;34.12;23.71
65190;BME280;51777;53.570;9.984;2022-08-21T11:42:32;101335.56;;;34.94;22.86
65190;BME280;51777;53.570;9.984;2022-08-21T11:50:37;101342.00;;;36.36;21.33
65190;BME280;51777;53.570;9.984;2022-08-21T11:53:17;101347.66;;;36.93;20.39
65190;BME280;51777;53.570;9.984;2022-08-21T11:55:55;101341.47;;;38.20;19.43
65190;BME280;51777;53.570;9.984;2022-08-21T11:58:29;101348.09;;;39.47;17.74
65190;BME280;51777;53.570;9.984;2022-08-21T12:01:14;101347.84;;;39.70;17.71
65190;BME280;51777;53.570;9.984;2022-08-21T12:03:54;101351.09;;;39.84;17.64
65190;BME280;51777;53.570;9.984;2022-08-21T12:06:33;101333.97;;;37.91;19.62
65190;BME280;51777;53.570;9.984;2022-08-21T12:09:04;101336.56;;;38.39;19.18
65190;BME280;51777;53.570;9.984;2022-08-21T12:11:31;101347.31;;;39.47;18.38
65190;BME280;51777;53.570;9.984;2022-08-21T12:14:15;101327.56;;;36.99;20.49
65190;BME280;51777;53.570;9.984;2022-08-21T12:16:49;101320.53;;;34.93;22.77
65190;BME280;51777;53.570;9.984;2022-08-21T12:21:58;101339.78;;;39.05;19.20
65190;BME280;51777;53.570;9.984;2022-08-21T12:27:01;101344.41;;;41.96;16.81
65190;BME280;51777;53.570;9.984;2022-08-21T12:29:37;101340.81;;;41.06;16.77
65190;BME280;51777;53.570;9.984;2022-08-21T12:32:27;101342.91;;;40.55;17.56
65190;BME280;51777;53.570;9.984;2022-08-21T12:37:43;101337.09;;;40.77;16.71
65190;BME280;51777;53.570;9.984;2022-08-21T12:41:00;101334.72;;;41.58;16.31
65190;BME280;51777;53.570;9.984;2022-08-21T12:43:01;101339.28;;;42.46;15.00
65190;BME280;51777;53.570;9.984;2022-08-21T12:45:34;101340.66;;;42.68;14.30
65190;BME280;51777;53.570;9.984;2022-08-21T12:50:54;101333.75;;;40.27;16.72
65190;BME280;51777;53.570;9.984;2022-08-21T12:53:26;101326.91;;;39.79;17.52
65190;BME280;51777;53.570;9.984;2022-08-21T12:55:54;101333.03;;;40.71;16.34
65190;BME280;51777;53.570;9.984;2022-08-21T12:58:25;101330.31;;;39.67;16.94
65190;BME280;51777;53.570;9.984;2022-08-21T13:01:07;101320.03;;;38.24;18.66
65190;BME280;51777;53.570;9.984;2022-08-21T13:03:37;101321.94;;;39.81;17.16
65190;BME280;51777;53.570;9.984;2022-08-21T13:06:05;101320.69;;;39.57;17.01
65190;BME280;51777;53.570;9.984;2022-08-21T13:08:33;101331.91;;;40.72;16.64
65190;BME280;51777;53.570;9.984;2022-08-21T13:11:03;101331.72;;;42.00;15.59
65190;BME280;51777;53.570;9.984;2022-08-21T13:13:32;101338.13;;;43.23;14.10
65190;BME280;51777;53.570;9.984;2022-08-21T13:16:00;101339.41;;;43.60;13.50
65190;BME280;51777;53.570;9.984;2022-08-21T13:18:29;101341.28;;;44.11;13.31
65190;BME280;51777;53.570;9.984;2022-08-21T13:21:06;101337.00;;;43.24;13.54
65190;BME280;51777;53.570;9.984;2022-08-21T13:23:33;101329.38;;;43.64;13.87
65190;BME280;51777;53.570;9.984;2022-08-21T13:25:58;101329.78;;;43.82;13.46
65190;BME280;51777;53.570;9.984;2022-08-21T13:28:33;101323.84;;;44.35;13.21
65190;BME280;51777;53.570;9.984;2022-08-21T13:30:59;101326.81;;;45.67;12.62
65190;BME280;51777;53.570;9.984;2022-08-21T13:33:29;101328.53;;;46.12;11.77
65190;BME280;51777;53.570;9.984;2022-08-21T13:38:28;101314.97;;;44.84;11.74
65190;BME280;51777;53.570;9.984;2022-08-21T13:41:04;101311.22;;;44.07;12.20
65190;BME280;51777;53.570;9.984;2022-08-21T13:43:33;101306.88;;;41.00;13.89
65190;BME280;51777;53.570;9.984;2022-08-21T13:46:00;101302.34;;;41.04;15.01
65190;BME280;51777;53.570;9.984;2022-08-21T13:48:29;101301.44;;;40.01;15.77
65190;BME280;51777;53.570;9.984;2022-08-21T13:50:57;101300.31;;;41.25;14.94
65190;BME280;51777;53.570;9.984;2022-08-21T13:53:32;101296.66;;;42.22;14.55
65190;BME280;51777;53.570;9.984;2022-08-21T13:56:00;101314.47;;;43.58;12.81
65190;BME280;51777;53.570;9.984;2022-08-21T13:58:41;101306.72;;;42.94;13.31
65190;BME280;51777;53.570;9.984;2022-08-21T14:01:59;101307.19;;;43.82;13.26
65190;BME280;51777;53.570;9.984;2022-08-21T14:04:27;101312.34;;;43.67;13.05
65190;BME280;51777;53.570;9.984;2022-08-21T14:06:56;101307.28;;;43.85;12.77